Sonnette, Montana
Current Conditions -  °F | °C
As of 1:55 PM on Tuesday 21 Oct 2014 (Local Time) from KW43 Reporting Station
Clear Clear  
Wind Chill: 77°   Ceiling: Unl
Heat Index: 77°   Visibility: 10mi
Dew Point: 37°   Wind: 20mph
Humidity: 24%   Direction: 200°SSW
Pressure: 29.75"   Gusts: 26mph
Location:  45.44°N, 105.41°W
Report Text: KW43 211955Z AUTO 20017G23KT 10SM CLR 25/03 A2975 RMK AO2
Loading
Personal Weather Stations






























Interactive Weather Map
Tropical Storm Tracking
New forecast layout! Learn more

10-Day Weather Forecast

Advertisements
Track Severe Weather on mobile